createdAt,value
2023-05-14T00:01:01.037Z,101342.53
2023-05-14T00:03:30.452Z,101344.03
2023-05-14T00:05:58.466Z,101336.38
2023-05-14T00:08:26.454Z,101329.91
2023-05-14T00:10:54.420Z,101334.00
2023-05-14T00:13:22.326Z,101333.06
2023-05-14T00:15:50.263Z,101341.00
2023-05-14T00:18:18.296Z,101340.28
2023-05-14T00:20:47.600Z,101341.25
2023-05-14T00:23:15.534Z,101332.72
2023-05-14T00:25:43.530Z,101326.09
2023-05-14T00:28:11.432Z,101328.69
2023-05-14T00:30:39.847Z,101320.91
2023-05-14T00:33:08.702Z,101313.41
2023-05-14T00:35:36.567Z,101308.41
2023-05-14T00:38:05.953Z,101314.44
2023-05-14T00:40:34.155Z,101323.84
2023-05-14T00:43:02.126Z,101316.00
2023-05-14T00:45:30.125Z,101315.16
2023-05-14T00:47:58.066Z,101307.44
2023-05-14T00:50:26.612Z,101306.47
2023-05-14T00:52:55.058Z,101297.25
2023-05-14T00:55:24.576Z,101290.47
2023-05-14T00:57:54.728Z,101301.47
2023-05-14T01:00:22.908Z,101291.31
2023-05-14T01:02:51.068Z,101299.16
2023-05-14T01:05:19.124Z,101306.91
2023-05-14T01:07:56.965Z,101293.22
2023-05-14T01:10:33.818Z,101301.13
2023-05-14T01:13:09.363Z,101300.81
2023-05-14T01:15:39.003Z,101304.91
2023-05-14T01:18:09.605Z,101305.63
2023-05-14T01:20:38.049Z,101306.03
2023-05-14T01:23:07.361Z,101307.63
2023-05-14T01:25:35.515Z,101308.56
2023-05-14T01:28:10.294Z,101303.22
2023-05-14T01:30:41.350Z,101301.41
2023-05-14T01:33:12.491Z,101290.19
2023-05-14T01:35:41.580Z,101303.81
2023-05-14T01:38:13.515Z,101297.69
2023-05-14T01:40:42.884Z,101298.63
2023-05-14T01:43:11.734Z,101309.00
2023-05-14T01:45:39.738Z,101309.13
2023-05-14T01:48:07.745Z,101307.31
2023-05-14T01:50:35.836Z,101297.97
2023-05-14T01:53:03.777Z,101302.38
2023-05-14T01:55:33.104Z,101302.13
2023-05-14T01:58:01.073Z,101303.53
2023-05-14T02:00:28.999Z,101301.84
2023-05-14T02:02:56.929Z,101300.88
2023-05-14T02:05:24.861Z,101310.28
2023-05-14T02:07:52.790Z,101299.00
2023-05-14T02:10:20.954Z,101300.75
2023-05-14T02:12:50.459Z,101305.16
2023-05-14T02:15:18.456Z,101299.31
2023-05-14T02:17:46.566Z,101291.16
2023-05-14T02:20:14.968Z,101275.53
2023-05-14T02:22:45.730Z,101278.28
2023-05-14T02:25:13.905Z,101260.88
2023-05-14T02:27:41.829Z,101276.72
2023-05-14T02:30:12.732Z,101279.09
2023-05-14T02:32:41.182Z,101275.88
2023-05-14T02:35:10.237Z,101281.56
2023-05-14T02:37:38.156Z,101285.25
2023-05-14T02:40:07.316Z,101278.22
2023-05-14T02:42:35.798Z,101275.47
2023-05-14T02:45:03.801Z,101280.25
2023-05-14T02:47:33.149Z,101279.25
2023-05-14T02:50:01.035Z,101274.28
2023-05-14T02:52:28.934Z,101281.16
2023-05-14T02:54:56.862Z,101284.03
2023-05-14T02:57:24.880Z,101283.72
2023-05-14T02:59:52.784Z,101280.34
2023-05-14T03:02:21.245Z,101280.72
2023-05-14T03:04:50.998Z,101285.47
2023-05-14T03:07:18.889Z,101290.84
2023-05-14T03:09:46.828Z,101291.44
2023-05-14T03:12:14.975Z,101300.47
2023-05-14T03:14:42.863Z,101312.28
2023-05-14T03:17:12.261Z,101298.66
2023-05-14T03:19:40.172Z,101316.09
2023-05-14T03:22:09.540Z,101294.28
2023-05-14T03:24:40.503Z,101313.63
2023-05-14T03:27:08.393Z,101309.63
2023-05-14T03:29:36.367Z,101279.66
2023-05-14T03:32:04.514Z,101300.38
2023-05-14T03:34:32.499Z,101290.53
2023-05-14T03:37:00.406Z,101306.22
2023-05-14T03:39:29.739Z,101302.53
2023-05-14T03:41:59.004Z,101315.47
2023-05-14T03:44:27.091Z,101313.00
2023-05-14T03:46:55.017Z,101322.25
2023-05-14T03:49:23.082Z,101294.88
2023-05-14T03:51:50.996Z,101318.41
2023-05-14T03:54:18.887Z,101328.16
2023-05-14T03:56:48.147Z,101318.28
2023-05-14T03:59:16.057Z,101323.66
2023-05-14T04:01:45.523Z,101325.06
2023-05-14T04:04:13.576Z,101322.78
2023-05-14T04:06:41.678Z,101336.38
2023-05-14T04:09:10.983Z,101331.03
2023-05-14T04:11:38.969Z,101325.81
2023-05-14T04:14:08.331Z,101327.50
2023-05-14T04:16:36.304Z,101332.22
2023-05-14T04:19:05.031Z,101327.88
2023-05-14T04:21:33.027Z,101333.78
2023-05-14T04:24:01.001Z,101331.84
2023-05-14T04:26:28.981Z,101331.59
2023-05-14T04:28:56.919Z,101324.69
2023-05-14T04:31:26.285Z,101320.19
2023-05-14T04:33:54.217Z,101318.69
2023-05-14T04:36:22.125Z,101321.50
2023-05-14T04:38:50.013Z,101321.72
2023-05-14T04:41:17.957Z,101314.34
2023-05-14T04:43:46.248Z,101316.56
2023-05-14T04:46:14.208Z,101315.56
2023-05-14T04:48:43.602Z,101315.44
2023-05-14T04:51:11.564Z,101309.94
2023-05-14T04:53:39.512Z,101305.72
2023-05-14T04:56:07.846Z,101317.47
2023-05-14T04:58:35.749Z,101308.59
2023-05-14T05:01:05.100Z,101303.31
2023-05-14T05:03:33.511Z,101304.72
2023-05-14T05:06:02.979Z,101309.19
2023-05-14T05:08:30.898Z,101315.53
2023-05-14T05:10:58.816Z,101317.50
2023-05-14T05:13:26.719Z,101329.66
2023-05-14T05:15:54.678Z,101325.22
2023-05-14T05:18:22.602Z,101341.13
2023-05-14T05:20:50.643Z,101331.47
2023-05-14T05:23:20.207Z,101334.66
2023-05-14T05:25:48.149Z,101327.53
2023-05-14T05:28:16.214Z,101336.91
2023-05-14T05:30:45.141Z,101318.88
2023-05-14T05:33:13.328Z,101327.91
2023-05-14T05:35:41.923Z,101324.38
2023-05-14T05:38:09.855Z,101317.25
2023-05-14T05:40:39.246Z,101311.47
2023-05-14T05:43:07.165Z,101316.72
2023-05-14T05:45:35.111Z,101313.03
2023-05-14T05:48:03.186Z,101320.94
2023-05-14T05:50:31.754Z,101333.03
2023-05-14T05:53:00.130Z,101332.59
2023-05-14T05:55:28.094Z,101337.47
2023-05-14T05:57:57.582Z,101345.97
2023-05-14T06:00:25.832Z,101334.34
2023-05-14T06:02:54.078Z,101341.69
2023-05-14T06:05:22.023Z,101341.75
2023-05-14T06:07:49.990Z,101344.88
2023-05-14T06:10:18.013Z,101344.88
2023-05-14T06:12:45.976Z,101352.78
2023-05-14T06:15:16.115Z,101344.94
2023-05-14T06:17:44.066Z,101354.03
2023-05-14T06:20:12.900Z,101349.78
2023-05-14T06:22:40.792Z,101354.41
2023-05-14T06:25:09.711Z,101345.19
2023-05-14T06:27:37.633Z,101352.34
2023-05-14T06:30:06.997Z,101331.97
2023-05-14T06:32:36.334Z,101354.53
2023-05-14T06:35:04.323Z,101352.16
2023-05-14T06:37:32.271Z,101344.75
2023-05-14T06:40:00.262Z,101349.72
2023-05-14T06:42:28.220Z,101341.69
2023-05-14T06:44:56.171Z,101355.38
2023-05-14T06:47:24.227Z,101327.91
2023-05-14T06:49:53.552Z,101345.72
2023-05-14T06:52:21.468Z,101331.91
2023-05-14T06:54:49.379Z,101334.47
2023-05-14T06:57:17.278Z,101330.03
2023-05-14T06:59:45.174Z,101339.19
2023-05-14T07:02:13.447Z,101332.41
2023-05-14T07:04:41.486Z,101334.50
2023-05-14T07:07:15.394Z,101325.16
2023-05-14T07:09:43.403Z,101322.81
2023-05-14T07:12:11.370Z,101331.97
2023-05-14T07:14:39.282Z,101328.88
2023-05-14T07:17:07.249Z,101327.06
2023-05-14T07:19:35.309Z,101319.59
2023-05-14T07:22:03.221Z,101321.41
2023-05-14T07:24:32.525Z,101334.75
2023-05-14T07:27:01.872Z,101337.81
2023-05-14T07:29:30.229Z,101335.28
2023-05-14T07:31:58.162Z,101337.09
2023-05-14T07:34:26.044Z,101337.22
2023-05-14T07:36:54.088Z,101330.38
2023-05-14T07:39:22.013Z,101326.28
2023-05-14T07:41:52.025Z,101344.66
2023-05-14T07:44:19.973Z,101332.56
2023-05-14T07:46:48.181Z,101323.94
2023-05-14T07:49:16.123Z,101326.75
2023-05-14T07:51:44.033Z,101312.69
2023-05-14T07:54:12.042Z,101317.09
2023-05-14T07:56:39.952Z,101305.63
2023-05-14T07:59:09.274Z,101317.84
2023-05-14T08:01:39.348Z,101297.13
2023-05-14T08:04:07.673Z,101314.50
2023-05-14T08:06:35.886Z,101319.31
2023-05-14T08:09:05.401Z,101318.84
2023-05-14T08:11:33.341Z,101320.31
2023-05-14T08:14:01.276Z,101316.09
2023-05-14T08:16:30.598Z,101316.91
2023-05-14T08:18:58.689Z,101319.47
2023-05-14T08:21:28.170Z,101325.88
2023-05-14T08:23:56.075Z,101328.72
2023-05-14T08:26:23.990Z,101327.69
2023-05-14T08:28:51.985Z,101331.28
2023-05-14T08:31:19.906Z,101328.84
2023-05-14T08:33:49.260Z,101333.22
2023-05-14T08:36:17.185Z,101321.22
2023-05-14T08:38:45.581Z,101316.19
2023-05-14T08:41:14.999Z,101316.69
2023-05-14T08:43:47.668Z,101312.97
2023-05-14T08:46:18.589Z,101314.03
2023-05-14T08:48:55.110Z,101313.78
2023-05-14T08:51:23.459Z,101322.16
2023-05-14T08:53:51.546Z,101313.16
2023-05-14T08:56:21.683Z,101321.50
2023-05-14T08:58:49.705Z,101320.19
2023-05-14T09:01:18.162Z,101322.28
2023-05-14T09:03:47.039Z,101324.81
2023-05-14T09:06:16.947Z,101316.09
2023-05-14T09:08:45.142Z,101302.75
2023-05-14T09:11:13.502Z,101307.56
2023-05-14T09:13:41.411Z,101299.59
2023-05-14T09:16:09.381Z,101294.16
2023-05-14T09:18:38.010Z,101283.22
2023-05-14T09:21:06.237Z,101305.31
2023-05-14T09:23:35.540Z,101293.28
2023-05-14T09:26:06.678Z,101279.47
2023-05-14T09:28:34.669Z,101292.97
2023-05-14T09:31:03.939Z,101290.22
2023-05-14T09:33:31.862Z,101293.81
2023-05-14T09:36:00.846Z,101307.47
2023-05-14T09:38:31.919Z,101311.94
2023-05-14T09:41:01.965Z,101298.53
2023-05-14T09:43:29.888Z,101305.00
2023-05-14T09:45:57.803Z,101295.50
2023-05-14T09:48:26.476Z,101297.56
2023-05-14T09:50:54.482Z,101303.94
2023-05-14T09:53:22.741Z,101299.03
2023-05-14T09:55:50.933Z,101308.53
2023-05-14T09:58:20.433Z,101311.00
2023-05-14T10:00:48.494Z,101311.84
2023-05-14T10:03:19.627Z,101313.00
2023-05-14T10:05:50.353Z,101308.00
2023-05-14T10:08:23.289Z,101304.41
2023-05-14T10:10:53.443Z,101298.38
2023-05-14T10:13:25.875Z,101288.13
2023-05-14T10:15:58.834Z,101298.75
2023-05-14T10:18:32.295Z,101297.81
2023-05-14T10:21:06.705Z,101287.19
2023-05-14T10:23:37.806Z,101302.69
2023-05-14T10:26:06.269Z,101288.84
2023-05-14T10:28:36.516Z,101282.25
2023-05-14T10:31:04.632Z,101281.00
2023-05-14T10:33:47.979Z,101272.66
2023-05-14T10:36:15.950Z,101279.69
2023-05-14T10:38:43.881Z,101271.88
2023-05-14T10:41:15.060Z,101262.00
2023-05-14T10:43:45.058Z,101264.88
2023-05-14T10:46:15.008Z,101259.38
2023-05-14T10:48:44.794Z,101257.16
2023-05-14T10:51:13.395Z,101249.91
2023-05-14T10:53:43.520Z,101234.00
2023-05-14T10:56:12.917Z,101205.88
2023-05-14T10:58:43.200Z,101223.13
2023-05-14T11:01:13.947Z,101217.78
2023-05-14T11:03:44.439Z,101209.38
2023-05-14T11:06:13.814Z,101208.13
2023-05-14T11:08:41.905Z,101191.63
2023-05-14T11:11:10.887Z,101189.97
2023-05-14T11:13:39.562Z,101187.63
2023-05-14T11:16:21.914Z,101186.72
2023-05-14T11:19:01.949Z,101175.84
2023-05-14T11:21:30.124Z,101185.03
2023-05-14T11:23:58.310Z,101186.41
2023-05-14T11:26:26.276Z,101185.13
2023-05-14T11:28:54.287Z,101191.13
2023-05-14T11:31:24.299Z,101185.91
2023-05-14T11:33:53.385Z,101183.31
2023-05-14T11:36:23.183Z,101174.97
2023-05-14T11:38:52.545Z,101187.38
2023-05-14T11:41:23.243Z,101197.59
2023-05-14T11:43:51.598Z,101202.13
2023-05-14T11:46:19.803Z,101182.94
2023-05-14T11:48:48.241Z,101186.72
2023-05-14T11:51:16.198Z,101181.22
2023-05-14T11:53:46.679Z,101180.34
2023-05-14T11:56:14.713Z,101175.09
2023-05-14T11:58:42.733Z,101165.09
2023-05-14T12:01:15.154Z,101176.34
2023-05-14T12:03:43.355Z,101168.63
2023-05-14T12:06:11.387Z,101157.97
2023-05-14T12:08:39.300Z,101140.31
2023-05-14T12:11:10.390Z,101121.97
2023-05-14T12:13:38.345Z,101152.84
2023-05-14T12:16:06.671Z,101141.25
2023-05-14T12:18:34.995Z,101153.88
2023-05-14T12:21:08.376Z,101144.47
2023-05-14T12:23:36.689Z,101146.91
2023-05-14T12:26:06.677Z,101138.34
2023-05-14T12:28:38.490Z,101127.63
2023-05-14T12:31:06.924Z,101104.78
2023-05-14T12:33:35.005Z,101106.22
2023-05-14T12:36:19.738Z,101098.97
2023-05-14T12:38:49.564Z,101098.50
2023-05-14T12:41:17.753Z,101091.44
2023-05-14T12:43:50.023Z,101095.91
2023-05-14T12:46:18.226Z,101090.56
2023-05-14T12:48:46.479Z,101096.00
2023-05-14T12:51:14.655Z,101080.16
2023-05-14T12:53:42.598Z,101081.06
2023-05-14T12:56:10.811Z,101077.91
2023-05-14T12:58:38.945Z,101079.00
2023-05-14T13:01:08.899Z,101086.69
2023-05-14T13:03:36.880Z,101094.84
2023-05-14T13:06:05.126Z,101085.38
2023-05-14T13:08:33.074Z,101082.72
2023-05-14T13:11:00.967Z,101086.09
2023-05-14T13:13:29.031Z,101063.22
2023-05-14T13:15:56.951Z,101050.31
2023-05-14T13:18:27.069Z,101052.00
2023-05-14T13:20:55.491Z,101043.06
2023-05-14T13:23:23.799Z,101045.59
2023-05-14T13:25:51.877Z,101044.72
2023-05-14T13:28:19.978Z,101035.97
2023-05-14T13:31:07.255Z,101024.69
2023-05-14T13:33:38.827Z,101017.41
2023-05-14T13:36:07.335Z,101018.75
2023-05-14T13:38:35.512Z,101023.53
2023-05-14T13:41:03.878Z,101017.34
2023-05-14T13:43:32.110Z,101006.91
2023-05-14T13:46:00.448Z,101011.41
2023-05-14T13:48:29.014Z,101015.47
2023-05-14T13:50:58.311Z,101005.50
2023-05-14T13:53:26.921Z,101003.84
2023-05-14T13:55:58.150Z,101001.56
2023-05-14T13:58:26.595Z,101001.31
2023-05-14T14:00:55.051Z,101001.19
2023-05-14T14:03:23.003Z,100998.22
2023-05-14T14:05:52.154Z,100993.44
2023-05-14T14:08:24.288Z,100988.88
2023-05-14T14:10:54.657Z,100989.72
2023-05-14T14:13:23.439Z,100974.47
2023-05-14T14:15:51.450Z,101006.00
2023-05-14T14:18:19.437Z,101013.38
2023-05-14T14:20:47.352Z,101005.69
2023-05-14T14:23:15.294Z,100997.31
2023-05-14T14:25:44.768Z,100989.94
2023-05-14T14:28:12.673Z,100995.13
2023-05-14T14:30:41.117Z,100997.06
2023-05-14T14:33:09.072Z,101000.59
2023-05-14T14:35:37.501Z,100981.09
2023-05-14T14:38:05.489Z,100980.88
2023-05-14T14:40:34.411Z,100982.69
2023-05-14T14:43:03.819Z,100981.13
2023-05-14T14:45:31.995Z,100972.16
2023-05-14T14:48:26.246Z,100975.50
2023-05-14T14:50:53.984Z,100964.41
2023-05-14T14:53:22.394Z,100959.69
2023-05-14T14:55:50.423Z,100954.25
2023-05-14T14:58:21.999Z,100941.59
2023-05-14T15:00:52.750Z,100952.88
2023-05-14T15:03:21.361Z,100952.19
2023-05-14T15:05:49.999Z,100945.19
2023-05-14T15:08:17.915Z,100943.69
2023-05-14T15:10:46.443Z,100934.56
2023-05-14T15:13:14.528Z,100941.19
2023-05-14T15:15:43.814Z,100956.81
2023-05-14T15:18:11.985Z,100961.47
2023-05-14T15:20:39.978Z,100969.72
2023-05-14T15:23:07.943Z,100961.28
2023-05-14T15:25:35.914Z,100960.81
2023-05-14T15:28:04.074Z,100957.94
2023-05-14T15:30:31.990Z,100962.53
2023-05-14T15:33:01.480Z,100966.41
2023-05-14T15:35:29.437Z,100972.19
2023-05-14T15:37:58.141Z,100963.66
2023-05-14T15:40:26.317Z,100970.41
2023-05-14T15:42:54.418Z,100967.75
2023-05-14T15:45:22.482Z,100976.56
2023-05-14T15:47:50.858Z,100976.03
2023-05-14T15:50:20.518Z,100965.03
2023-05-14T15:52:48.922Z,100964.75
2023-05-14T15:55:16.862Z,100956.56
2023-05-14T15:57:45.095Z,100964.84
2023-05-14T16:00:14.500Z,100955.88
2023-05-14T16:02:42.621Z,100955.78
2023-05-14T16:05:11.016Z,100959.94
2023-05-14T16:07:40.333Z,100962.47
2023-05-14T16:10:09.191Z,100956.44
2023-05-14T16:12:37.126Z,100957.56
2023-05-14T16:15:05.563Z,100953.09
2023-05-14T16:17:33.878Z,100951.34
2023-05-14T16:20:02.132Z,100955.56
2023-05-14T16:22:32.006Z,100958.28
2023-05-14T16:25:03.420Z,100959.56
2023-05-14T16:27:31.982Z,100957.31
2023-05-14T16:29:59.895Z,100949.31
2023-05-14T16:32:28.053Z,100960.75
2023-05-14T16:34:56.572Z,100953.38
2023-05-14T16:37:24.657Z,100956.59
2023-05-14T16:39:52.696Z,100964.13
2023-05-14T16:42:21.972Z,100962.59
2023-05-14T16:44:49.896Z,100963.16
2023-05-14T16:47:17.848Z,100957.78
2023-05-14T16:49:45.746Z,100959.72
2023-05-14T16:52:13.662Z,100955.53
2023-05-14T16:54:41.606Z,100955.53
2023-05-14T16:57:09.614Z,100950.53
2023-05-14T16:59:38.914Z,100943.19
2023-05-14T17:02:07.994Z,100940.28
2023-05-14T17:04:38.748Z,100938.88
2023-05-14T17:07:06.965Z,100945.00
2023-05-14T17:09:34.924Z,100957.06
2023-05-14T17:12:02.900Z,100949.59
2023-05-14T17:14:31.722Z,100955.84
2023-05-14T17:17:01.081Z,100957.81
2023-05-14T17:19:28.992Z,100955.56
2023-05-14T17:21:56.972Z,100950.03
2023-05-14T17:24:24.888Z,100955.72
2023-05-14T17:26:52.875Z,100946.28
2023-05-14T17:29:20.803Z,100946.28
2023-05-14T17:31:49.334Z,100943.63
2023-05-14T17:34:18.815Z,100943.84
2023-05-14T17:36:46.786Z,100944.16
2023-05-14T17:39:14.688Z,100918.34
2023-05-14T17:41:42.901Z,100938.44
2023-05-14T17:44:12.875Z,100934.16
2023-05-14T17:46:41.872Z,100935.19
2023-05-14T17:49:09.896Z,100931.94
2023-05-14T17:51:39.248Z,100929.00
2023-05-14T17:54:07.204Z,100934.38
2023-05-14T17:56:35.151Z,100930.78
2023-05-14T17:59:03.095Z,100938.56
2023-05-14T18:01:31.282Z,100938.75
2023-05-14T18:03:59.373Z,100940.09
2023-05-14T18:06:27.518Z,100941.25
2023-05-14T18:08:56.919Z,100934.31
2023-05-14T18:11:24.900Z,100933.75
2023-05-14T18:13:52.859Z,100936.81
2023-05-14T18:16:20.845Z,100932.47
2023-05-14T18:18:48.821Z,100932.41
2023-05-14T18:21:16.785Z,100926.88
2023-05-14T18:23:44.776Z,100926.81
2023-05-14T18:26:14.542Z,100919.28
2023-05-14T18:28:42.570Z,100923.69
2023-05-14T18:31:10.585Z,100916.88
2023-05-14T18:33:38.618Z,100913.97
2023-05-14T18:36:06.951Z,100918.28
2023-05-14T18:38:34.954Z,100916.84
2023-05-14T18:41:03.043Z,100916.06
2023-05-14T18:43:32.310Z,100914.72
2023-05-14T18:46:00.360Z,100919.78
2023-05-14T18:48:28.392Z,100923.31
2023-05-14T18:50:56.271Z,100925.44
2023-05-14T18:53:24.355Z,100932.16
2023-05-14T18:55:52.332Z,100914.69
2023-05-14T18:58:20.246Z,100932.69
2023-05-14T19:00:49.563Z,100931.69
2023-05-14T19:03:17.627Z,100936.38
2023-05-14T19:05:45.691Z,100929.94
2023-05-14T19:08:13.609Z,100924.50
2023-05-14T19:10:41.511Z,100896.41
2023-05-14T19:13:09.444Z,100895.84
2023-05-14T19:15:38.191Z,100892.06
2023-05-14T19:18:07.728Z,100897.66
2023-05-14T19:20:35.758Z,100888.22
2023-05-14T19:23:03.687Z,100886.91
2023-05-14T19:25:31.776Z,100878.63
2023-05-14T19:28:01.631Z,100867.94
2023-05-14T19:30:29.598Z,100855.72
2023-05-14T19:32:57.540Z,100859.66
2023-05-14T19:35:27.026Z,100861.16
2023-05-14T19:37:54.990Z,100852.41
2023-05-14T19:40:22.947Z,100851.66
2023-05-14T19:42:50.873Z,100841.63
2023-05-14T19:45:18.774Z,100841.59
2023-05-14T19:47:46.720Z,100846.50
2023-05-14T19:50:14.768Z,100850.84
2023-05-14T19:52:44.082Z,100837.84
2023-05-14T19:55:11.992Z,100823.63
2023-05-14T19:57:40.039Z,100825.06
2023-05-14T20:00:10.578Z,100816.56
2023-05-14T20:02:40.898Z,100816.78
2023-05-14T20:05:10.642Z,100821.16
2023-05-14T20:07:40.344Z,100821.78
2023-05-14T20:10:11.002Z,100830.75
2023-05-14T20:12:38.896Z,100837.09
2023-05-14T20:15:07.828Z,100834.72
2023-05-14T20:17:35.790Z,100829.53
2023-05-14T20:20:04.922Z,100834.53
2023-05-14T20:22:32.795Z,100833.31
2023-05-14T20:25:00.718Z,100833.69
2023-05-14T20:27:30.046Z,100825.97
2023-05-14T20:29:57.964Z,100807.16
2023-05-14T20:32:26.180Z,100812.94
2023-05-14T20:34:54.164Z,100819.97
2023-05-14T20:37:22.113Z,100821.19
2023-05-14T20:39:50.046Z,100808.31
2023-05-14T20:42:18.003Z,100810.47
2023-05-14T20:44:48.458Z,100803.78
2023-05-14T20:47:19.030Z,100811.41
2023-05-14T20:49:47.033Z,100804.03
2023-05-14T20:52:15.336Z,100811.28
2023-05-14T20:54:43.768Z,100815.94
2023-05-14T20:57:12.347Z,100810.59
2023-05-14T20:59:40.335Z,100813.78
2023-05-14T21:02:10.130Z,100812.00
2023-05-14T21:04:38.701Z,100800.84
2023-05-14T21:07:07.195Z,100801.41
2023-05-14T21:09:35.143Z,100791.78
2023-05-14T21:12:03.085Z,100774.28
2023-05-14T21:14:31.092Z,100772.84
2023-05-14T21:16:59.040Z,100764.50
2023-05-14T21:19:28.311Z,100774.03
2023-05-14T21:21:56.247Z,100774.59
2023-05-14T21:24:24.177Z,100783.31
2023-05-14T21:26:53.676Z,100770.09
2023-05-14T21:29:21.756Z,100755.34
2023-05-14T21:31:50.275Z,100764.88
2023-05-14T21:34:18.269Z,100762.25
2023-05-14T21:36:48.224Z,100763.69
2023-05-14T21:39:16.183Z,100761.44
2023-05-14T21:41:44.075Z,100763.53
2023-05-14T21:44:11.989Z,100757.81
2023-05-14T21:46:39.993Z,100758.44
2023-05-14T21:49:07.906Z,100758.91
2023-05-14T21:51:36.003Z,100748.56
2023-05-14T21:54:05.587Z,100741.56
2023-05-14T21:56:33.512Z,100742.13
2023-05-14T21:59:01.462Z,100743.56
2023-05-14T22:01:29.422Z,100751.66
2023-05-14T22:03:57.967Z,100747.47
2023-05-14T22:06:26.407Z,100750.34
2023-05-14T22:08:54.293Z,100742.00
2023-05-14T22:11:23.577Z,100721.69
2023-05-14T22:13:51.497Z,100749.75
2023-05-14T22:16:19.571Z,100734.75
2023-05-14T22:18:48.111Z,100738.56
2023-05-14T22:21:16.053Z,100730.94
2023-05-14T22:23:44.404Z,100722.94
2023-05-14T22:26:12.434Z,100735.22
2023-05-14T22:28:43.135Z,100732.09
2023-05-14T22:31:11.411Z,100732.56
2023-05-14T22:33:39.333Z,100732.03
2023-05-14T22:36:08.120Z,100730.81
2023-05-14T22:38:36.031Z,100723.69
2023-05-14T22:41:03.945Z,100725.13
2023-05-14T22:43:31.844Z,100721.56
2023-05-14T22:46:01.332Z,100713.66
2023-05-14T22:48:29.275Z,100710.84
2023-05-14T22:50:57.219Z,100706.88
2023-05-14T22:53:25.479Z,100720.78
2023-05-14T22:55:53.599Z,100719.94
2023-05-14T22:58:21.538Z,100712.53
2023-05-14T23:00:49.455Z,100713.53
2023-05-14T23:03:18.776Z,100705.53
2023-05-14T23:05:46.724Z,100706.16
2023-05-14T23:08:14.686Z,100706.38
2023-05-14T23:10:42.616Z,100710.47
2023-05-14T23:13:10.648Z,100704.47
2023-05-14T23:15:38.824Z,100699.69
2023-05-14T23:18:07.062Z,100692.78
2023-05-14T23:20:36.416Z,100685.94
2023-05-14T23:23:04.482Z,100687.59
2023-05-14T23:25:33.305Z,100692.19
2023-05-14T23:28:01.407Z,100690.50
2023-05-14T23:30:29.379Z,100693.00
2023-05-14T23:32:57.343Z,100689.63
2023-05-14T23:35:25.996Z,100682.19
2023-05-14T23:37:55.615Z,100691.97
2023-05-14T23:40:23.564Z,100691.38
2023-05-14T23:42:51.755Z,100700.34
2023-05-14T23:45:19.894Z,100695.09
2023-05-14T23:47:48.143Z,100698.75
2023-05-14T23:50:16.163Z,100704.31
2023-05-14T23:52:44.104Z,100692.28
2023-05-14T23:55:13.668Z,100672.53
2023-05-14T23:57:42.119Z,100693.09
